createdAt,value
2019-01-17T00:00:19.475Z,24.20
2019-01-17T00:02:52.291Z,24.15
2019-01-17T00:05:22.156Z,24.37
2019-01-17T00:07:52.099Z,24.80
2019-01-17T00:10:24.561Z,25.75
2019-01-17T00:12:57.398Z,25.20
2019-01-17T00:15:27.242Z,24.02
2019-01-17T00:18:03.094Z,24.98
2019-01-17T00:20:35.638Z,26.77
2019-01-17T00:23:11.482Z,25.30
2019-01-17T00:25:57.518Z,25.75
2019-01-17T00:28:36.545Z,27.02
2019-01-17T00:31:06.398Z,28.45
2019-01-17T00:33:39.061Z,29.15
2019-01-17T00:36:11.878Z,26.25
2019-01-17T00:38:57.947Z,25.80
2019-01-17T00:41:30.787Z,26.85
2019-01-17T00:44:03.713Z,25.85
2019-01-17T00:46:42.782Z,29.52
2019-01-17T00:49:31.025Z,25.02
2019-01-17T00:52:17.139Z,25.92
2019-01-17T00:55:02.959Z,27.32
2019-01-17T00:57:48.194Z,25.65
2019-01-17T01:00:34.535Z,27.45
2019-01-17T01:03:10.454Z,27.42
2019-01-17T01:05:46.317Z,28.27
2019-01-17T01:08:31.195Z,29.60
2019-01-17T01:11:06.471Z,27.98
2019-01-17T01:13:52.658Z,29.70
2019-01-17T01:16:27.223Z,29.35
2019-01-17T01:19:12.370Z,28.42
2019-01-17T01:21:51.780Z,25.80
2019-01-17T01:24:21.648Z,23.47
2019-01-17T01:27:09.849Z,23.80
2019-01-17T01:29:39.726Z,20.72
2019-01-17T01:32:15.554Z,20.75
2019-01-17T01:34:45.416Z,20.02
2019-01-17T01:37:24.278Z,19.55
2019-01-17T01:39:57.102Z,22.07
2019-01-17T01:42:26.934Z,20.80
2019-01-17T01:44:59.650Z,17.65
2019-01-17T01:47:47.626Z,16.32
2019-01-17T01:50:20.178Z,17.95
2019-01-17T01:52:50.006Z,18.85
2019-01-17T01:55:18.218Z,15.58
2019-01-17T01:57:46.418Z,15.55
2019-01-17T02:00:14.610Z,14.55
2019-01-17T02:02:42.825Z,14.18
2019-01-17T02:05:11.017Z,14.30
2019-01-17T02:07:39.230Z,13.15
2019-01-17T02:10:10.654Z,13.68
2019-01-17T02:12:38.856Z,12.03
2019-01-17T02:15:07.043Z,12.30
2019-01-17T02:17:35.254Z,13.60
2019-01-17T02:20:04.890Z,12.73
2019-01-17T02:22:33.089Z,13.22
2019-01-17T02:25:49.514Z,11.57
2019-01-17T02:28:17.730Z,11.80
2019-01-17T02:30:45.961Z,12.75
2019-01-17T02:33:14.201Z,12.18
2019-01-17T02:35:42.429Z,12.43
2019-01-17T02:38:10.658Z,12.30
2019-01-17T02:40:38.929Z,12.53
2019-01-17T02:43:07.161Z,11.43
2019-01-17T02:45:35.381Z,14.55
2019-01-17T02:48:03.643Z,12.37
2019-01-17T02:50:31.873Z,11.57
2019-01-17T02:53:00.151Z,12.23
2019-01-17T02:55:28.420Z,11.93
2019-01-17T02:57:56.649Z,13.05
2019-01-17T03:00:24.897Z,12.50
2019-01-17T03:02:53.165Z,12.98
2019-01-17T03:05:21.416Z,12.93
2019-01-17T03:07:49.633Z,13.20
2019-01-17T03:10:17.891Z,12.23
2019-01-17T03:12:46.117Z,14.10
2019-01-17T03:15:14.335Z,13.07
2019-01-17T03:17:42.601Z,13.43
2019-01-17T03:20:12.569Z,12.43
2019-01-17T03:22:40.797Z,12.20
2019-01-17T03:25:10.495Z,12.10
2019-01-17T03:27:38.763Z,13.20
2019-01-17T03:30:13.414Z,15.90
2019-01-17T03:32:41.660Z,14.07
2019-01-17T03:35:09.882Z,16.45
2019-01-17T03:37:38.118Z,15.08
2019-01-17T03:40:09.549Z,13.22
2019-01-17T03:42:37.770Z,15.23
2019-01-17T03:45:08.650Z,14.38
2019-01-17T03:47:36.900Z,15.65
2019-01-17T03:50:10.840Z,15.95
2019-01-17T03:52:39.051Z,15.00
2019-01-17T03:55:09.621Z,14.05
2019-01-17T03:57:37.841Z,14.70
2019-01-17T04:00:14.916Z,14.65
2019-01-17T04:02:43.143Z,15.40
2019-01-17T04:05:11.357Z,14.20
2019-01-17T04:07:39.597Z,14.03
2019-01-17T04:10:10.568Z,15.13
2019-01-17T04:12:38.837Z,15.58
2019-01-17T04:15:08.601Z,15.90
2019-01-17T04:17:36.825Z,14.55
2019-01-17T04:20:08.272Z,15.15
2019-01-17T04:22:36.573Z,14.83
2019-01-17T04:25:06.469Z,14.45
2019-01-17T04:27:34.687Z,15.58
2019-01-17T04:30:03.105Z,16.50
2019-01-17T04:32:31.340Z,16.70
2019-01-17T04:34:59.573Z,16.75
2019-01-17T04:37:27.829Z,15.48
2019-01-17T04:39:56.055Z,16.90
2019-01-17T04:42:24.340Z,16.10
2019-01-17T04:44:52.601Z,15.68
2019-01-17T04:47:20.833Z,15.77
2019-01-17T04:49:50.124Z,16.20
2019-01-17T04:52:18.344Z,18.52
2019-01-17T04:54:46.569Z,16.55
2019-01-17T04:57:15.645Z,19.15
2019-01-17T04:59:43.900Z,16.40
2019-01-17T05:02:12.140Z,17.35
2019-01-17T05:04:40.378Z,17.42
2019-01-17T05:07:08.601Z,17.73
2019-01-17T05:09:36.856Z,17.10
2019-01-17T05:12:05.077Z,17.80
2019-01-17T05:14:33.324Z,18.50
2019-01-17T05:17:01.544Z,20.43
2019-01-17T05:19:29.797Z,19.77
2019-01-17T05:21:58.050Z,19.85
2019-01-17T05:24:26.260Z,20.12
2019-01-17T05:26:54.550Z,19.52
2019-01-17T05:29:22.764Z,19.37
2019-01-17T05:31:50.996Z,19.95
2019-01-17T05:34:19.241Z,17.65
2019-01-17T05:36:47.473Z,19.37
2019-01-17T05:39:15.728Z,19.45
2019-01-17T05:41:44.117Z,18.05
2019-01-17T05:44:12.361Z,18.55
2019-01-17T05:46:40.633Z,19.67
2019-01-17T05:49:08.870Z,17.12
2019-01-17T05:51:37.106Z,21.23
2019-01-17T05:54:05.340Z,19.25
2019-01-17T05:56:33.560Z,19.60
2019-01-17T05:59:01.829Z,17.87
2019-01-17T06:01:30.033Z,21.42
2019-01-17T06:03:58.252Z,18.55
2019-01-17T06:06:32.840Z,19.57
2019-01-17T06:08:56.456Z,21.40
2019-01-17T06:11:24.709Z,18.77
2019-01-17T06:13:52.933Z,18.77
2019-01-17T06:16:21.159Z,17.05
2019-01-17T06:18:49.401Z,23.38
2019-01-17T06:21:17.628Z,18.55
2019-01-17T06:23:45.903Z,18.00
2019-01-17T06:26:14.133Z,18.45
2019-01-17T06:28:42.348Z,22.98
2019-01-17T06:31:10.591Z,21.35
2019-01-17T06:33:38.810Z,20.37
2019-01-17T06:36:08.688Z,18.33
2019-01-17T06:38:36.924Z,18.85
2019-01-17T06:41:05.158Z,19.23
2019-01-17T06:43:33.476Z,18.73
2019-01-17T06:46:01.706Z,20.53
2019-01-17T06:48:29.952Z,19.52
2019-01-17T06:50:58.173Z,18.35
2019-01-17T06:53:26.387Z,20.50
2019-01-17T06:55:54.638Z,19.07
2019-01-17T06:58:22.856Z,20.45
2019-01-17T07:00:51.107Z,18.62
2019-01-17T07:03:19.328Z,21.65
2019-01-17T07:05:48.588Z,20.72
2019-01-17T07:08:16.793Z,19.85
2019-01-17T07:10:45.028Z,17.57
2019-01-17T07:13:13.283Z,20.05
2019-01-17T07:15:41.511Z,18.52
2019-01-17T07:18:09.740Z,19.85
2019-01-17T07:20:37.984Z,18.77
2019-01-17T07:23:06.216Z,18.70
2019-01-17T07:25:40.851Z,17.75
2019-01-17T07:28:04.432Z,20.40
2019-01-17T07:30:34.306Z,20.23
2019-01-17T07:33:02.560Z,19.15
2019-01-17T07:35:30.786Z,21.05
2019-01-17T07:37:59.040Z,20.15
2019-01-17T07:40:27.255Z,21.48
2019-01-17T07:42:55.476Z,17.57
2019-01-17T07:45:25.965Z,19.80
2019-01-17T07:47:54.196Z,19.32
2019-01-17T07:50:22.452Z,18.35
2019-01-17T07:52:50.672Z,20.30
2019-01-17T07:55:18.895Z,19.17
2019-01-17T07:57:47.129Z,18.20
2019-01-17T08:00:17.693Z,20.07
2019-01-17T08:02:45.936Z,21.20
2019-01-17T08:05:14.169Z,19.57
2019-01-17T08:07:42.365Z,19.10
2019-01-17T08:10:13.408Z,18.77
2019-01-17T08:12:41.632Z,19.92
2019-01-17T08:15:11.628Z,19.30
2019-01-17T08:17:39.922Z,22.75
2019-01-17T08:20:19.996Z,20.27
2019-01-17T08:22:48.197Z,20.43
2019-01-17T08:25:16.528Z,22.90
2019-01-17T08:27:44.832Z,22.80
2019-01-17T08:30:18.921Z,21.90
2019-01-17T08:32:47.170Z,23.20
2019-01-17T08:35:15.735Z,21.45
2019-01-17T08:37:43.984Z,20.88
2019-01-17T08:40:20.364Z,23.42
2019-01-17T08:42:48.072Z,21.83
2019-01-17T08:45:16.319Z,22.85
2019-01-17T08:47:44.540Z,22.07
2019-01-17T08:50:16.123Z,20.92
2019-01-17T08:52:44.368Z,20.12
2019-01-17T08:55:12.592Z,22.93
2019-01-17T08:57:40.836Z,19.45
2019-01-17T09:00:14.978Z,20.35
2019-01-17T09:02:43.200Z,21.60
2019-01-17T09:05:11.452Z,18.92
2019-01-17T09:07:39.696Z,19.90
2019-01-17T09:10:16.759Z,20.97
2019-01-17T09:12:44.988Z,18.98
2019-01-17T09:15:15.844Z,18.57
2019-01-17T09:17:44.097Z,21.55
2019-01-17T09:20:13.959Z,19.05
2019-01-17T09:22:42.212Z,18.87
2019-01-17T09:25:14.957Z,18.20
2019-01-17T09:27:43.171Z,19.25
2019-01-17T09:30:14.309Z,18.50
2019-01-17T09:32:42.520Z,19.75
2019-01-17T09:35:12.723Z,17.80
2019-01-17T09:37:40.959Z,18.37
2019-01-17T09:40:17.934Z,19.62
2019-01-17T09:42:46.219Z,17.43
2019-01-17T09:45:14.455Z,18.47
2019-01-17T09:47:42.706Z,17.77
2019-01-17T09:50:16.886Z,17.83
2019-01-17T09:52:45.104Z,16.80
2019-01-17T09:55:13.412Z,17.83
2019-01-17T09:57:41.639Z,17.43
2019-01-17T10:00:13.132Z,15.73
2019-01-17T10:02:41.392Z,17.55
2019-01-17T10:05:09.608Z,16.80
2019-01-17T10:07:37.834Z,16.77
2019-01-17T10:10:09.349Z,17.92
2019-01-17T10:12:37.581Z,17.35
2019-01-17T10:15:09.075Z,17.90
2019-01-17T10:17:40.587Z,16.20
2019-01-17T10:20:20.847Z,15.85
2019-01-17T10:23:04.160Z,15.78
2019-01-17T10:25:47.529Z,15.90
2019-01-17T10:28:35.291Z,16.63
2019-01-17T10:31:23.302Z,17.70
2019-01-17T10:33:54.783Z,15.83
2019-01-17T10:36:41.315Z,15.35
2019-01-17T10:39:12.858Z,16.43
2019-01-17T10:41:50.116Z,15.72
2019-01-17T10:44:30.565Z,16.62
2019-01-17T10:47:35.702Z,16.55
2019-01-17T10:50:21.564Z,15.58
2019-01-17T10:52:55.784Z,16.32
2019-01-17T10:55:49.952Z,15.20
2019-01-17T10:58:42.795Z,17.93
2019-01-17T11:01:20.023Z,15.43
2019-01-17T11:04:08.051Z,15.72
2019-01-17T11:06:57.840Z,18.00
2019-01-17T11:09:46.128Z,17.12
2019-01-17T11:12:23.151Z,15.13
2019-01-17T11:15:03.592Z,14.17
2019-01-17T11:17:40.963Z,14.70
2019-01-17T11:20:31.817Z,14.93
2019-01-17T11:23:12.232Z,15.57
2019-01-17T11:25:43.748Z,15.38
2019-01-17T11:28:15.240Z,14.65
2019-01-17T11:31:03.432Z,17.40
2019-01-17T11:33:40.752Z,13.60
2019-01-17T11:36:36.515Z,16.32
2019-01-17T11:39:16.096Z,15.30
2019-01-17T11:41:53.523Z,15.15
2019-01-17T11:44:36.634Z,13.55
2019-01-17T11:47:23.511Z,14.38
2019-01-17T11:50:09.971Z,15.85
2019-01-17T11:52:59.727Z,13.28
2019-01-17T11:55:36.900Z,13.90
2019-01-17T11:58:25.103Z,15.57
2019-01-17T12:00:59.028Z,15.17
2019-01-17T12:03:33.308Z,14.30
2019-01-17T12:06:01.523Z,14.53
2019-01-17T12:08:29.751Z,15.08
2019-01-17T12:10:58.000Z,16.02
2019-01-17T12:13:26.227Z,13.85
2019-01-17T12:15:54.488Z,15.83
2019-01-17T12:18:22.713Z,14.28
2019-01-17T12:20:50.932Z,15.30
2019-01-17T12:23:19.172Z,15.03
2019-01-17T12:25:47.416Z,14.78
2019-01-17T12:28:16.485Z,14.35
2019-01-17T12:30:44.780Z,12.82
2019-01-17T12:33:13.000Z,12.77
2019-01-17T12:35:41.291Z,13.50
2019-01-17T12:38:09.499Z,12.40
2019-01-17T12:40:37.796Z,13.75
2019-01-17T12:43:06.024Z,11.83
2019-01-17T12:45:34.243Z,11.60
2019-01-17T12:48:02.496Z,14.13
2019-01-17T12:50:31.883Z,15.00
2019-01-17T12:53:00.244Z,12.90
2019-01-17T12:55:28.464Z,12.53
2019-01-17T12:57:56.712Z,12.45
2019-01-17T13:00:24.960Z,13.10
2019-01-17T13:02:53.198Z,12.78
2019-01-17T13:05:21.443Z,15.78
2019-01-17T13:07:49.667Z,15.35
2019-01-17T13:10:18.666Z,13.70
2019-01-17T13:12:46.904Z,13.55
2019-01-17T13:15:15.116Z,13.88
2019-01-17T13:17:43.372Z,15.68
2019-01-17T13:20:14.042Z,14.73
2019-01-17T13:22:42.292Z,15.13
2019-01-17T13:25:13.891Z,13.72
2019-01-17T13:27:42.136Z,15.13
2019-01-17T13:30:21.541Z,14.80
2019-01-17T13:32:49.794Z,13.60
2019-01-17T13:35:18.028Z,14.90
2019-01-17T13:37:46.285Z,12.83
2019-01-17T13:40:17.207Z,13.83
2019-01-17T13:42:45.481Z,13.28
2019-01-17T13:45:18.463Z,12.75
2019-01-17T13:47:46.720Z,11.35
2019-01-17T13:50:14.984Z,11.05
2019-01-17T13:52:43.210Z,8.03
2019-01-17T13:55:13.996Z,9.63
2019-01-17T13:57:42.216Z,8.53
2019-01-17T14:00:24.809Z,7.70
2019-01-17T14:02:53.477Z,7.58
2019-01-17T14:05:21.707Z,5.97
2019-01-17T14:07:50.493Z,7.10
2019-01-17T14:10:19.657Z,7.87
2019-01-17T14:12:47.899Z,8.20
2019-01-17T14:15:24.009Z,7.08
2019-01-17T14:17:52.248Z,8.03
2019-01-17T14:20:20.464Z,8.30
2019-01-17T14:22:48.721Z,11.00
2019-01-17T14:25:17.616Z,7.83
2019-01-17T14:27:45.936Z,8.28
2019-01-17T14:30:22.905Z,9.88
2019-01-17T14:32:51.192Z,9.88
2019-01-17T14:35:19.434Z,8.63
2019-01-17T14:37:47.671Z,8.33
2019-01-17T14:40:15.884Z,7.50
2019-01-17T14:42:44.136Z,7.58
2019-01-17T14:45:20.556Z,6.30
2019-01-17T14:47:48.827Z,5.78
2019-01-17T14:50:25.241Z,6.08
2019-01-17T14:52:53.476Z,5.55
2019-01-17T14:55:21.699Z,6.60
2019-01-17T14:57:49.940Z,6.78
2019-01-17T15:00:26.405Z,5.12
2019-01-17T15:02:54.623Z,5.60
2019-01-17T15:05:22.845Z,4.35
2019-01-17T15:07:51.083Z,4.92
2019-01-17T15:10:25.241Z,4.03
2019-01-17T15:12:53.479Z,5.00
2019-01-17T15:15:21.707Z,5.08
2019-01-17T15:17:49.920Z,5.00
2019-01-17T15:20:20.003Z,4.10
2019-01-17T15:22:50.061Z,3.60
2019-01-17T15:25:19.571Z,3.70
2019-01-17T15:27:47.813Z,3.83
2019-01-17T15:30:18.946Z,4.72
2019-01-17T15:32:47.428Z,5.70
2019-01-17T15:35:15.668Z,3.93
2019-01-17T15:37:43.887Z,3.80
2019-01-17T15:40:18.012Z,3.33
2019-01-17T15:42:46.265Z,4.03
2019-01-17T15:45:14.488Z,3.23
2019-01-17T15:47:42.704Z,4.10
2019-01-17T15:50:13.593Z,3.53
2019-01-17T15:52:41.827Z,5.37
2019-01-17T15:55:12.184Z,6.90
2019-01-17T15:57:40.445Z,5.33
2019-01-17T16:00:11.915Z,4.92
2019-01-17T16:02:40.161Z,4.65
2019-01-17T16:05:08.413Z,8.53
2019-01-17T16:07:36.627Z,6.55
2019-01-17T16:10:10.715Z,5.33
2019-01-17T16:12:38.973Z,5.83
2019-01-17T16:15:15.238Z,5.50
2019-01-17T16:17:43.495Z,4.87
2019-01-17T16:20:13.756Z,5.83
2019-01-17T16:22:42.026Z,8.23
2019-01-17T16:25:12.148Z,5.60
2019-01-17T16:27:41.982Z,4.67
2019-01-17T16:30:16.385Z,5.15
2019-01-17T16:32:44.601Z,8.40
2019-01-17T16:35:12.824Z,6.50
2019-01-17T16:37:41.071Z,7.28
2019-01-17T16:40:11.128Z,6.28
2019-01-17T16:42:39.349Z,7.62
2019-01-17T16:45:10.603Z,8.83
2019-01-17T16:47:38.827Z,8.75
2019-01-17T16:50:13.116Z,8.88
2019-01-17T16:52:41.352Z,7.85
2019-01-17T16:55:10.411Z,6.80
2019-01-17T16:57:38.675Z,6.17
2019-01-17T17:00:15.505Z,6.42
2019-01-17T17:02:43.748Z,8.85
2019-01-17T17:05:12.060Z,6.95
2019-01-17T17:07:40.302Z,7.65
2019-01-17T17:10:11.529Z,7.75
2019-01-17T17:12:39.748Z,8.25
2019-01-17T17:15:09.542Z,7.72
2019-01-17T17:17:37.799Z,11.83
2019-01-17T17:20:11.767Z,13.62
2019-01-17T17:22:40.013Z,12.20
2019-01-17T17:25:08.229Z,10.78
2019-01-17T17:27:36.489Z,10.98
2019-01-17T17:30:07.980Z,12.55
2019-01-17T17:32:36.215Z,12.05
2019-01-17T17:35:05.416Z,10.58
2019-01-17T17:37:33.645Z,11.25
2019-01-17T17:40:01.904Z,10.82
2019-01-17T17:42:30.132Z,9.80
2019-01-17T17:44:58.357Z,11.80
2019-01-17T17:47:26.600Z,10.93
2019-01-17T17:49:54.905Z,10.43
2019-01-17T17:52:23.172Z,11.57
2019-01-17T17:54:51.463Z,9.47
2019-01-17T17:57:19.727Z,9.18
2019-01-17T17:59:47.988Z,10.58
2019-01-17T18:02:17.869Z,7.80
2019-01-17T18:04:46.206Z,9.57
2019-01-17T18:07:14.435Z,6.23
2019-01-17T18:09:42.700Z,6.92
2019-01-17T18:12:10.919Z,7.70
2019-01-17T18:14:40.038Z,7.90
2019-01-17T18:17:08.287Z,7.70
2019-01-17T18:19:36.507Z,6.97
2019-01-17T18:22:04.784Z,6.35
2019-01-17T18:24:33.007Z,7.33
2019-01-17T18:27:01.232Z,7.08
2019-01-17T18:29:29.520Z,7.33
2019-01-17T18:31:57.753Z,7.67
2019-01-17T18:34:26.016Z,9.50
2019-01-17T18:36:54.259Z,8.18
2019-01-17T18:39:22.502Z,7.97
2019-01-17T18:41:50.788Z,9.28
2019-01-17T18:44:19.028Z,9.78
2019-01-17T18:46:47.287Z,9.80
2019-01-17T18:49:15.500Z,7.62
2019-01-17T18:51:43.733Z,8.23
2019-01-17T18:54:11.991Z,9.85
2019-01-17T18:56:41.974Z,9.70
2019-01-17T18:59:10.241Z,8.73
2019-01-17T19:01:38.492Z,9.50
2019-01-17T19:04:06.716Z,7.70
2019-01-17T19:06:35.240Z,8.37
2019-01-17T19:09:05.479Z,8.40
2019-01-17T19:11:33.742Z,8.73
2019-01-17T19:14:01.982Z,9.88
2019-01-17T19:16:30.200Z,8.58
2019-01-17T19:18:58.461Z,8.30
2019-01-17T19:21:26.687Z,7.12
2019-01-17T19:23:54.924Z,7.60
2019-01-17T19:26:23.181Z,6.40
2019-01-17T19:28:51.426Z,7.00
2019-01-17T19:31:19.644Z,8.45
2019-01-17T19:33:47.897Z,6.22
2019-01-17T19:36:16.121Z,5.90
2019-01-17T19:38:44.345Z,7.17
2019-01-17T19:41:12.626Z,6.03
2019-01-17T19:43:40.840Z,6.17
2019-01-17T19:46:09.132Z,4.28
2019-01-17T19:48:37.400Z,5.25
2019-01-17T19:51:05.674Z,5.75
2019-01-17T19:53:33.968Z,6.12
2019-01-17T19:56:02.239Z,5.90
2019-01-17T19:58:30.480Z,6.40
2019-01-17T20:00:58.701Z,5.22
2019-01-17T20:03:26.956Z,5.00
2019-01-17T20:05:55.175Z,4.58
2019-01-17T20:08:23.413Z,3.77
2019-01-17T20:10:51.643Z,4.03
2019-01-17T20:13:19.872Z,4.90
2019-01-17T20:15:48.107Z,4.67
2019-01-17T20:18:16.351Z,4.97
2019-01-17T20:20:44.623Z,4.80
2019-01-17T20:23:12.839Z,4.92
2019-01-17T20:25:41.129Z,4.15
2019-01-17T20:28:09.357Z,5.12
2019-01-17T20:30:37.616Z,5.15
2019-01-17T20:33:05.844Z,4.10
2019-01-17T20:35:34.068Z,5.07
2019-01-17T20:38:02.303Z,3.87
2019-01-17T20:40:30.624Z,5.87
2019-01-17T20:42:58.881Z,4.80
2019-01-17T20:45:27.104Z,3.83
2019-01-17T20:47:55.347Z,5.33
2019-01-17T20:50:26.123Z,5.72
2019-01-17T20:52:54.350Z,5.10
2019-01-17T20:55:22.632Z,6.72
2019-01-17T20:57:50.918Z,4.10
2019-01-17T21:00:25.343Z,4.45
2019-01-17T21:02:53.613Z,4.03
2019-01-17T21:05:22.435Z,3.75
2019-01-17T21:07:50.724Z,3.80
2019-01-17T21:10:18.995Z,3.37
2019-01-17T21:12:47.216Z,5.37
2019-01-17T21:15:15.464Z,6.50
2019-01-17T21:17:43.685Z,4.92
2019-01-17T21:20:13.088Z,5.28
2019-01-17T21:22:41.348Z,4.92
2019-01-17T21:25:15.712Z,5.15
2019-01-17T21:27:43.976Z,4.70
2019-01-17T21:30:21.020Z,5.45
2019-01-17T21:32:49.332Z,5.80
2019-01-17T21:35:17.549Z,6.65
2019-01-17T21:37:45.796Z,6.15
2019-01-17T21:40:16.847Z,5.67
2019-01-17T21:42:45.098Z,5.47
2019-01-17T21:45:15.168Z,6.42
2019-01-17T21:47:43.440Z,6.05
2019-01-17T21:50:14.391Z,7.15
2019-01-17T21:52:42.650Z,7.30
2019-01-17T21:55:10.953Z,6.95
2019-01-17T21:57:39.248Z,8.28
2019-01-17T22:00:13.444Z,9.57
2019-01-17T22:02:41.712Z,7.97
2019-01-17T22:05:10.029Z,8.05
2019-01-17T22:07:38.228Z,9.08
2019-01-17T22:10:09.533Z,7.90
2019-01-17T22:12:37.914Z,7.58
2019-01-17T22:15:09.395Z,7.50
2019-01-17T22:17:37.646Z,8.78
2019-01-17T22:20:09.232Z,8.58
2019-01-17T22:22:37.503Z,7.75
2019-01-17T22:25:11.319Z,7.60
2019-01-17T22:27:39.575Z,8.20
2019-01-17T22:30:11.056Z,8.18
2019-01-17T22:32:39.315Z,8.48
2019-01-17T22:35:07.605Z,8.95
2019-01-17T22:37:35.923Z,8.70
2019-01-17T22:40:06.845Z,9.40
2019-01-17T22:42:35.076Z,8.80
2019-01-17T22:45:04.397Z,8.73
2019-01-17T22:47:32.667Z,9.23
2019-01-17T22:50:00.932Z,9.55
2019-01-17T22:52:29.320Z,9.47
2019-01-17T22:54:57.554Z,9.03
2019-01-17T22:57:25.837Z,10.35
2019-01-17T22:59:54.076Z,10.13
2019-01-17T23:02:22.431Z,8.28
2019-01-17T23:04:50.672Z,7.92
2019-01-17T23:07:18.899Z,8.57
2019-01-17T23:09:47.159Z,8.85
2019-01-17T23:12:15.386Z,8.35
2019-01-17T23:14:44.975Z,8.88
2019-01-17T23:17:13.281Z,7.80
2019-01-17T23:19:41.486Z,8.40
2019-01-17T23:22:09.712Z,7.95
2019-01-17T23:24:37.978Z,10.43
2019-01-17T23:27:06.216Z,9.73
2019-01-17T23:29:34.440Z,8.93
2019-01-17T23:32:02.733Z,9.93
2019-01-17T23:34:30.963Z,8.78
2019-01-17T23:36:59.194Z,7.72
2019-01-17T23:39:27.444Z,8.05
2019-01-17T23:41:55.669Z,7.90
2019-01-17T23:44:23.899Z,7.42
2019-01-17T23:46:52.219Z,8.35
2019-01-17T23:49:20.440Z,6.70
2019-01-17T23:51:48.663Z,8.38
2019-01-17T23:54:16.920Z,7.35
2019-01-17T23:56:45.152Z,7.45
2019-01-17T23:59:13.376Z,8.60
